createdAt,value
2023-04-02T00:01:28.976Z,12.80
2023-04-02T00:04:03.350Z,12.80
2023-04-02T00:06:44.767Z,12.80
2023-04-02T00:09:14.841Z,12.80
2023-04-02T00:11:49.029Z,12.80
2023-04-02T00:14:28.907Z,12.80
2023-04-02T00:16:59.601Z,12.80
2023-04-02T00:19:43.206Z,12.70
2023-04-02T00:22:19.357Z,12.70
2023-04-02T00:24:49.056Z,12.70
2023-04-02T00:27:20.956Z,12.70
2023-04-02T00:29:54.366Z,12.70
2023-04-02T00:32:32.989Z,12.70
2023-04-02T00:35:13.040Z,12.70
2023-04-02T00:37:42.218Z,12.70
2023-04-02T00:40:44.663Z,12.70
2023-04-02T00:43:22.796Z,12.70
2023-04-02T00:46:01.269Z,12.70
2023-04-02T00:48:33.279Z,12.70
2023-04-02T00:51:32.253Z,12.70
2023-04-02T00:54:05.918Z,12.70
2023-04-02T00:56:43.932Z,12.70
2023-04-02T00:59:31.860Z,12.70
2023-04-02T01:02:18.693Z,12.60
2023-04-02T01:05:19.871Z,12.70
2023-04-02T01:08:02.149Z,12.70
2023-04-02T01:10:52.012Z,12.60
2023-04-02T01:13:41.987Z,12.60
2023-04-02T01:16:30.725Z,12.60
2023-04-02T01:19:28.921Z,12.60
2023-04-02T01:22:18.172Z,12.70
2023-04-02T01:24:46.123Z,12.60
2023-04-02T01:27:34.084Z,12.60
2023-04-02T01:30:07.248Z,12.60
2023-04-02T01:32:35.518Z,12.60
2023-04-02T01:35:02.738Z,12.60
2023-04-02T01:37:56.150Z,12.60
2023-04-02T01:40:51.916Z,12.60
2023-04-02T01:43:41.924Z,12.60
2023-04-02T01:46:32.249Z,12.60
2023-04-02T01:49:15.818Z,12.60
2023-04-02T01:51:51.222Z,12.50
2023-04-02T01:54:23.314Z,12.60
2023-04-02T01:56:53.784Z,12.60
2023-04-02T01:59:23.004Z,12.60
2023-04-02T02:02:06.129Z,12.60
2023-04-02T02:04:36.464Z,12.60
2023-04-02T02:07:19.215Z,12.50
2023-04-02T02:09:50.957Z,12.50
2023-04-02T02:12:21.318Z,12.60
2023-04-02T02:14:52.542Z,12.60
2023-04-02T02:17:34.814Z,12.50
2023-04-02T02:20:06.585Z,12.60
2023-04-02T02:22:40.482Z,12.60
2023-04-02T02:25:16.426Z,12.50
2023-04-02T02:28:29.219Z,12.60
2023-04-02T02:31:18.530Z,12.60
2023-04-02T02:33:52.693Z,12.60
2023-04-02T02:36:40.051Z,12.50
2023-04-02T02:39:23.795Z,12.50
2023-04-02T02:42:18.073Z,12.60
2023-04-02T02:44:54.879Z,12.50
2023-04-02T02:47:34.629Z,12.60
2023-04-02T02:50:11.490Z,12.50
2023-04-02T02:52:52.645Z,12.60
2023-04-02T02:55:27.408Z,12.60
2023-04-02T02:58:14.384Z,12.60
2023-04-02T03:00:51.770Z,12.60
2023-04-02T03:03:30.126Z,12.60
2023-04-02T03:06:16.708Z,12.60
2023-04-02T03:09:39.925Z,12.60
2023-04-02T03:12:42.131Z,12.60
2023-04-02T03:15:41.071Z,12.60
2023-04-02T03:18:28.878Z,12.60
2023-04-02T03:21:41.559Z,12.60
2023-04-02T03:24:44.130Z,12.60
2023-04-02T03:27:33.897Z,12.60
2023-04-02T03:30:24.289Z,12.60
2023-04-02T03:33:02.131Z,12.60
2023-04-02T03:35:36.212Z,12.60
2023-04-02T03:38:30.979Z,12.70
2023-04-02T03:41:17.795Z,12.70
2023-04-02T03:43:56.274Z,12.70
2023-04-02T03:46:44.233Z,12.70
2023-04-02T03:49:46.430Z,12.70
2023-04-02T03:52:42.777Z,12.70
2023-04-02T03:55:21.612Z,12.70
2023-04-02T03:58:31.314Z,12.70
2023-04-02T04:01:12.384Z,12.70
2023-04-02T04:03:46.547Z,12.70
2023-04-02T04:06:28.771Z,12.70
2023-04-02T04:08:58.388Z,12.70
2023-04-02T04:11:33.461Z,12.70
2023-04-02T04:14:19.180Z,12.70
2023-04-02T04:17:16.181Z,12.70
2023-04-02T04:19:58.078Z,12.70
2023-04-02T04:22:33.770Z,12.70
2023-04-02T04:25:33.860Z,12.70
2023-04-02T04:28:29.139Z,12.70
2023-04-02T04:31:18.222Z,12.70
2023-04-02T04:34:04.805Z,12.70
2023-04-02T04:37:07.598Z,12.70
2023-04-02T04:40:01.003Z,12.70
2023-04-02T04:42:39.605Z,12.70
2023-04-02T04:45:41.721Z,12.70
2023-04-02T04:48:20.511Z,12.70
2023-04-02T04:51:00.852Z,12.80
2023-04-02T04:53:30.979Z,12.70
2023-04-02T04:56:18.451Z,12.80
2023-04-02T04:59:13.710Z,12.80
2023-04-02T05:02:11.565Z,12.70
2023-04-02T05:04:48.119Z,12.80
2023-04-02T05:07:30.126Z,12.80
2023-04-02T05:10:27.395Z,12.80
2023-04-02T05:13:18.577Z,12.80
2023-04-02T05:16:43.439Z,12.80
2023-04-02T05:19:33.642Z,12.80
2023-04-02T05:22:20.235Z,12.80
2023-04-02T05:24:55.609Z,12.80
2023-04-02T05:27:59.200Z,12.80
2023-04-02T05:31:17.395Z,12.80
2023-04-02T05:33:49.836Z,12.80
2023-04-02T05:36:30.260Z,12.80
2023-04-02T05:39:02.550Z,12.80
2023-04-02T05:41:47.859Z,12.80
2023-04-02T05:44:42.060Z,12.80
2023-04-02T05:47:40.882Z,12.80
2023-04-02T05:50:30.324Z,12.80
2023-04-02T05:53:15.982Z,12.80
2023-04-02T05:56:05.190Z,12.80
2023-04-02T05:58:48.295Z,12.80
2023-04-02T06:02:19.861Z,12.80
2023-04-02T06:05:02.987Z,12.90
2023-04-02T06:07:46.466Z,12.80
2023-04-02T06:11:08.335Z,12.90
2023-04-02T06:13:39.636Z,12.90
2023-04-02T06:16:16.478Z,12.90
2023-04-02T06:18:47.160Z,12.90
2023-04-02T06:21:20.394Z,12.80
2023-04-02T06:24:01.111Z,12.80
2023-04-02T06:26:40.923Z,12.70
2023-04-02T06:29:14.121Z,12.60
2023-04-02T06:31:57.077Z,12.50
2023-04-02T06:34:33.691Z,12.40
2023-04-02T06:37:22.197Z,12.30
2023-04-02T06:39:54.142Z,12.20
2023-04-02T06:42:31.364Z,12.10
2023-04-02T06:45:30.351Z,12.00
2023-04-02T06:48:19.658Z,11.90
2023-04-02T06:51:10.264Z,11.80
2023-04-02T06:53:51.606Z,11.80
2023-04-02T06:56:44.616Z,11.60
2023-04-02T06:59:16.297Z,11.60
2023-04-02T07:01:57.316Z,11.50
2023-04-02T07:04:25.503Z,11.50
2023-04-02T07:06:57.494Z,11.50
2023-04-02T07:09:27.622Z,11.40
2023-04-02T07:11:57.963Z,11.30
2023-04-02T07:14:24.859Z,11.30
2023-04-02T07:16:52.288Z,11.30
2023-04-02T07:19:22.794Z,11.30
2023-04-02T07:21:53.753Z,11.20
2023-04-02T07:24:22.198Z,11.20
2023-04-02T07:26:49.113Z,11.30
2023-04-02T07:29:21.922Z,11.30
2023-04-02T07:31:52.914Z,11.30
2023-04-02T07:34:22.291Z,11.30
2023-04-02T07:36:53.839Z,11.30
2023-04-02T07:39:20.774Z,11.30
2023-04-02T07:41:58.802Z,11.30
2023-04-02T07:44:25.964Z,11.30
2023-04-02T07:46:53.391Z,11.20
2023-04-02T07:49:22.968Z,11.20
2023-04-02T07:51:52.866Z,11.20
2023-04-02T07:54:19.722Z,11.10
2023-04-02T07:56:46.662Z,11.10
2023-04-02T07:59:13.545Z,11.00
2023-04-02T08:01:43.745Z,11.00
2023-04-02T08:04:22.308Z,10.90
2023-04-02T08:06:50.345Z,10.80
2023-04-02T08:09:24.202Z,10.80
2023-04-02T08:11:53.549Z,10.80
2023-04-02T08:14:22.544Z,10.80
2023-04-02T08:16:55.577Z,10.70
2023-04-02T08:19:28.097Z,10.70
2023-04-02T08:21:57.392Z,10.70
2023-04-02T08:24:26.953Z,10.70
2023-04-02T08:26:59.089Z,10.70
2023-04-02T08:29:32.184Z,10.60
2023-04-02T08:31:59.906Z,10.60
2023-04-02T08:34:27.448Z,10.60
2023-04-02T08:36:58.613Z,10.60
2023-04-02T08:39:29.360Z,10.60
2023-04-02T08:42:04.390Z,10.60
2023-04-02T08:45:25.729Z,10.60
2023-04-02T08:47:57.277Z,10.60
2023-04-02T08:50:41.265Z,10.60
2023-04-02T08:53:19.957Z,10.60
2023-04-02T08:56:17.475Z,10.60
2023-04-02T08:58:55.988Z,10.60
2023-04-02T09:01:35.006Z,10.70
2023-04-02T09:04:14.933Z,10.60
2023-04-02T09:06:45.802Z,10.70
2023-04-02T09:09:18.584Z,10.70
2023-04-02T09:11:56.159Z,10.70
2023-04-02T09:14:38.765Z,10.80
2023-04-02T09:17:25.441Z,10.80
2023-04-02T09:20:21.170Z,10.80
2023-04-02T09:22:53.006Z,10.80
2023-04-02T09:25:27.104Z,10.70
2023-04-02T09:27:58.201Z,10.70
2023-04-02T09:30:31.489Z,10.80
2023-04-02T09:33:07.813Z,10.70
2023-04-02T09:35:50.007Z,10.80
2023-04-02T09:38:36.225Z,10.70
2023-04-02T09:41:08.269Z,10.70
2023-04-02T09:43:41.806Z,10.80
2023-04-02T09:46:25.885Z,10.80
2023-04-02T09:49:04.211Z,10.80
2023-04-02T09:51:36.872Z,10.90
2023-04-02T09:54:03.704Z,10.90
2023-04-02T09:56:36.618Z,10.90
2023-04-02T09:59:12.387Z,10.90
2023-04-02T10:01:44.808Z,10.90
2023-04-02T10:04:47.781Z,10.90
2023-04-02T10:07:45.893Z,10.90
2023-04-02T10:10:25.058Z,10.90
2023-04-02T10:13:08.035Z,10.90
2023-04-02T10:16:01.598Z,11.00
2023-04-02T10:18:46.730Z,11.10
2023-04-02T10:21:27.159Z,11.10
2023-04-02T10:23:55.654Z,11.10
2023-04-02T10:26:59.850Z,11.10
2023-04-02T10:30:05.667Z,11.10
2023-04-02T10:33:21.350Z,11.10
2023-04-02T10:36:50.356Z,11.20
2023-04-02T10:39:25.518Z,11.10
2023-04-02T10:42:12.236Z,11.10
2023-04-02T10:45:01.693Z,11.10
2023-04-02T10:47:44.719Z,11.10
2023-04-02T10:50:49.515Z,11.10
2023-04-02T10:53:46.286Z,11.10
2023-04-02T10:56:14.461Z,11.10
2023-04-02T10:59:10.035Z,11.10
2023-04-02T11:01:43.829Z,11.10
2023-04-02T11:04:31.559Z,11.00
2023-04-02T11:07:14.894Z,11.00
2023-04-02T11:09:46.993Z,11.00
2023-04-02T11:12:46.625Z,11.00
2023-04-02T11:15:20.726Z,11.00
2023-04-02T11:17:50.384Z,11.00
2023-04-02T11:20:44.353Z,11.10
2023-04-02T11:23:20.520Z,11.10
2023-04-02T11:26:14.794Z,11.10
2023-04-02T11:28:43.891Z,11.20
2023-04-02T11:31:21.708Z,11.20
2023-04-02T11:33:50.886Z,11.20
2023-04-02T11:36:54.793Z,11.20
2023-04-02T11:39:54.923Z,11.20
2023-04-02T11:42:44.504Z,11.20
2023-04-02T11:45:32.321Z,11.30
2023-04-02T11:48:16.145Z,11.30
2023-04-02T11:50:46.848Z,11.30
2023-04-02T11:53:35.863Z,11.30
2023-04-02T11:56:33.169Z,11.30
2023-04-02T11:59:39.103Z,11.30
2023-04-02T12:02:41.466Z,11.30
2023-04-02T12:05:32.002Z,11.30
2023-04-02T12:08:34.986Z,11.20
2023-04-02T12:11:06.306Z,11.20
2023-04-02T12:13:42.231Z,11.20
2023-04-02T12:16:16.777Z,11.20
2023-04-02T12:18:47.574Z,11.20
2023-04-02T12:21:23.148Z,11.20
2023-04-02T12:23:55.826Z,11.20
2023-04-02T12:26:37.835Z,11.20
2023-04-02T12:29:29.448Z,11.20
2023-04-02T12:32:04.906Z,11.20
2023-04-02T12:34:36.944Z,11.20
2023-04-02T12:37:05.741Z,11.20
2023-04-02T12:39:51.536Z,11.20
2023-04-02T12:42:42.215Z,11.20
2023-04-02T12:45:29.497Z,11.20
2023-04-02T12:48:05.277Z,11.10
2023-04-02T12:50:38.527Z,11.10
2023-04-02T12:53:21.356Z,11.00
2023-04-02T12:55:53.430Z,11.00
2023-04-02T12:58:42.774Z,11.00
2023-04-02T13:01:31.631Z,10.90
2023-04-02T13:04:13.526Z,10.80
2023-04-02T13:06:49.354Z,10.70
2023-04-02T13:09:45.062Z,10.60
2023-04-02T13:12:43.630Z,10.60
2023-04-02T13:15:29.295Z,10.60
2023-04-02T13:18:22.553Z,10.50
2023-04-02T13:21:23.568Z,10.50
2023-04-02T13:23:53.028Z,10.50
2023-04-02T13:26:27.665Z,10.50
2023-04-02T13:29:24.709Z,10.50
2023-04-02T13:31:55.938Z,10.50
2023-04-02T13:34:25.345Z,10.50
2023-04-02T13:36:53.103Z,10.50
2023-04-02T13:39:23.622Z,10.40
2023-04-02T13:41:59.154Z,10.50
2023-04-02T13:44:29.838Z,10.50
2023-04-02T13:46:58.261Z,10.40
2023-04-02T13:49:31.084Z,10.50
2023-04-02T13:52:04.193Z,10.50
2023-04-02T13:55:01.899Z,10.40
2023-04-02T13:57:31.372Z,10.40
2023-04-02T14:00:00.969Z,10.40
2023-04-02T14:02:31.360Z,10.40
2023-04-02T14:05:55.534Z,10.40
2023-04-02T14:08:47.831Z,10.30
2023-04-02T14:11:50.924Z,10.30
2023-04-02T14:14:55.670Z,10.30
2023-04-02T14:17:43.669Z,10.30
2023-04-02T14:20:25.518Z,10.30
2023-04-02T14:23:05.587Z,10.30
2023-04-02T14:25:57.762Z,10.20
2023-04-02T14:28:57.703Z,10.20
2023-04-02T14:31:42.098Z,10.20
2023-04-02T14:34:46.467Z,10.20
2023-04-02T14:37:37.092Z,10.20
2023-04-02T14:40:42.075Z,10.20
2023-04-02T14:43:24.303Z,10.10
2023-04-02T14:46:10.529Z,10.10
2023-04-02T14:49:35.232Z,10.10
2023-04-02T14:52:18.709Z,10.10
2023-04-02T14:55:13.191Z,10.10
2023-04-02T14:57:53.403Z,10.10
2023-04-02T15:00:20.885Z,10.10
2023-04-02T15:03:14.112Z,10.10
2023-04-02T15:05:53.845Z,10.10
2023-04-02T15:08:25.721Z,10.10
2023-04-02T15:11:10.499Z,10.10
2023-04-02T15:13:44.376Z,10.10
2023-04-02T15:16:16.260Z,10.00
2023-04-02T15:18:53.997Z,10.00
2023-04-02T15:21:23.227Z,10.00
2023-04-02T15:24:36.690Z,9.90
2023-04-02T15:27:42.584Z,9.90
2023-04-02T15:30:30.137Z,9.80
2023-04-02T15:33:34.162Z,9.80
2023-04-02T15:36:12.648Z,9.80
2023-04-02T15:38:59.513Z,9.70
2023-04-02T15:41:35.875Z,9.70
2023-04-02T15:44:17.137Z,9.70
2023-04-02T15:47:06.713Z,9.60
2023-04-02T15:50:08.348Z,9.60
2023-04-02T15:53:01.100Z,9.60
2023-04-02T15:55:44.136Z,9.60
2023-04-02T15:59:00.558Z,9.60
2023-04-02T16:01:35.325Z,9.50
2023-04-02T16:04:44.741Z,9.50
2023-04-02T16:07:24.777Z,9.50
2023-04-02T16:10:04.645Z,9.50
2023-04-02T16:12:36.964Z,9.50
2023-04-02T16:15:24.361Z,9.50
2023-04-02T16:18:02.948Z,9.50
2023-04-02T16:20:43.706Z,9.50
2023-04-02T16:23:18.628Z,9.50
2023-04-02T16:26:10.621Z,9.50
2023-04-02T16:28:51.288Z,9.50
2023-04-02T16:31:44.758Z,9.50
2023-04-02T16:34:27.970Z,9.50
2023-04-02T16:37:24.124Z,9.50
2023-04-02T16:40:24.045Z,9.50
2023-04-02T16:43:28.470Z,9.50
2023-04-02T16:46:10.420Z,9.50
2023-04-02T16:48:56.256Z,9.50
2023-04-02T16:51:49.946Z,9.50
2023-04-02T16:54:59.853Z,9.40
2023-04-02T16:58:16.356Z,9.40
2023-04-02T17:00:59.179Z,9.40
2023-04-02T17:03:45.269Z,9.40
2023-04-02T17:06:51.423Z,9.40
2023-04-02T17:09:44.809Z,9.30
2023-04-02T17:12:46.648Z,9.30
2023-04-02T17:15:28.436Z,9.30
2023-04-02T17:18:01.999Z,9.30
2023-04-02T17:20:32.513Z,9.30
2023-04-02T17:23:02.739Z,9.20
2023-04-02T17:25:44.137Z,9.20
2023-04-02T17:28:25.154Z,9.20
2023-04-02T17:31:02.839Z,9.20
2023-04-02T17:33:29.649Z,9.20
2023-04-02T17:36:07.092Z,9.10
2023-04-02T17:39:04.472Z,9.10
2023-04-02T17:41:55.267Z,9.20
2023-04-02T17:44:51.437Z,9.10
2023-04-02T17:47:50.912Z,9.10
2023-04-02T17:50:31.546Z,9.00
2023-04-02T17:53:12.635Z,9.00
2023-04-02T17:56:29.713Z,9.00
2023-04-02T17:59:10.481Z,9.00
2023-04-02T18:02:37.496Z,8.90
2023-04-02T18:05:25.949Z,8.90
2023-04-02T18:07:58.703Z,8.90
2023-04-02T18:10:55.077Z,8.80
2023-04-02T18:13:33.571Z,8.80
2023-04-02T18:16:06.441Z,8.80
2023-04-02T18:18:48.366Z,8.70
2023-04-02T18:21:27.698Z,8.70
2023-04-02T18:24:05.424Z,8.70
2023-04-02T18:26:50.661Z,8.70
2023-04-02T18:29:48.814Z,8.60
2023-04-02T18:32:48.821Z,8.60
2023-04-02T18:35:34.953Z,8.60
2023-04-02T18:38:44.235Z,8.60
2023-04-02T18:41:48.997Z,8.60
2023-04-02T18:44:31.315Z,8.50
2023-04-02T18:47:40.440Z,8.50
2023-04-02T18:50:36.598Z,8.50
2023-04-02T18:53:41.779Z,8.50
2023-04-02T18:56:16.044Z,8.50
2023-04-02T18:58:52.616Z,8.50
2023-04-02T19:01:39.047Z,8.50
2023-04-02T19:04:22.333Z,8.50
2023-04-02T19:07:14.530Z,8.50
2023-04-02T19:09:50.429Z,8.50
2023-04-02T19:12:23.453Z,8.60
2023-04-02T19:15:01.471Z,8.50
2023-04-02T19:17:44.600Z,8.50
2023-04-02T19:20:13.669Z,8.50
2023-04-02T19:23:11.056Z,8.50
2023-04-02T19:26:06.893Z,8.50
2023-04-02T19:29:03.713Z,8.50
2023-04-02T19:31:54.556Z,8.50
2023-04-02T19:34:53.173Z,8.50
2023-04-02T19:37:41.105Z,8.50
2023-04-02T19:40:53.632Z,8.60
2023-04-02T19:43:20.845Z,8.60
2023-04-02T19:45:53.102Z,8.50
2023-04-02T19:48:53.310Z,8.60
2023-04-02T19:51:24.328Z,8.60
2023-04-02T19:53:59.489Z,8.60
2023-04-02T19:56:33.113Z,8.60
2023-04-02T19:59:07.811Z,8.70
2023-04-02T20:01:41.343Z,8.60
2023-04-02T20:04:10.890Z,8.70
2023-04-02T20:06:42.512Z,8.60
2023-04-02T20:09:14.126Z,8.60
2023-04-02T20:11:41.089Z,8.70
2023-04-02T20:14:07.998Z,8.60
2023-04-02T20:16:36.848Z,8.60
2023-04-02T20:19:08.566Z,8.60
2023-04-02T20:21:40.548Z,8.60
2023-04-02T20:24:08.349Z,8.60
2023-04-02T20:26:36.054Z,8.50
2023-04-02T20:29:03.265Z,8.50
2023-04-02T20:31:30.594Z,8.50
2023-04-02T20:33:59.017Z,8.50
2023-04-02T20:36:28.197Z,8.40
2023-04-02T20:38:55.620Z,8.40
2023-04-02T20:41:23.051Z,8.30
2023-04-02T20:43:54.519Z,8.30
2023-04-02T20:46:26.360Z,8.20
2023-04-02T20:48:55.570Z,8.20
2023-04-02T20:51:24.447Z,8.20
2023-04-02T20:53:51.258Z,8.20
2023-04-02T20:56:20.139Z,8.20
2023-04-02T20:58:47.035Z,8.20
2023-04-02T21:01:26.374Z,8.10
2023-04-02T21:03:59.789Z,8.20
2023-04-02T21:06:41.090Z,8.20
2023-04-02T21:09:18.322Z,8.20
2023-04-02T21:11:47.423Z,8.20
2023-04-02T21:14:16.769Z,8.20
2023-04-02T21:16:43.777Z,8.20
2023-04-02T21:19:12.980Z,8.20
2023-04-02T21:21:44.445Z,8.20
2023-04-02T21:24:13.667Z,8.30
2023-04-02T21:26:46.297Z,8.30
2023-04-02T21:29:18.111Z,8.30
2023-04-02T21:31:45.573Z,8.30
2023-04-02T21:34:16.863Z,8.30
2023-04-02T21:36:52.156Z,8.30
2023-04-02T21:39:27.140Z,8.30
2023-04-02T21:41:56.372Z,8.20
2023-04-02T21:44:24.481Z,8.20
2023-04-02T21:46:54.369Z,8.20
2023-04-02T21:49:24.185Z,8.30
2023-04-02T21:51:56.108Z,8.30
2023-04-02T21:54:23.081Z,8.20
2023-04-02T21:56:50.366Z,8.20
2023-04-02T21:59:22.548Z,8.20
2023-04-02T22:01:54.769Z,8.20
2023-04-02T22:04:26.070Z,8.20
2023-04-02T22:06:53.658Z,8.20
2023-04-02T22:09:29.520Z,8.20
2023-04-02T22:12:02.249Z,8.20
2023-04-02T22:14:31.805Z,8.20
2023-04-02T22:17:01.160Z,8.20
2023-04-02T22:19:30.777Z,8.20
2023-04-02T22:21:57.664Z,8.20
2023-04-02T22:24:29.522Z,8.20
2023-04-02T22:26:58.987Z,8.20
2023-04-02T22:29:28.021Z,8.20
2023-04-02T22:31:57.047Z,8.20
2023-04-02T22:34:28.439Z,8.20
2023-04-02T22:36:55.981Z,8.20
2023-04-02T22:39:22.824Z,8.20
2023-04-02T22:41:56.812Z,8.20
2023-04-02T22:44:23.696Z,8.10
2023-04-02T22:46:50.559Z,8.10
2023-04-02T22:49:19.202Z,8.10
2023-04-02T22:51:46.468Z,8.10
2023-04-02T22:54:16.037Z,8.10
2023-04-02T22:56:47.757Z,8.10
2023-04-02T22:59:16.680Z,8.10
2023-04-02T23:01:46.081Z,8.00
2023-04-02T23:04:15.772Z,8.00
2023-04-02T23:06:42.646Z,8.00
2023-04-02T23:09:17.002Z,7.90
2023-04-02T23:11:43.936Z,7.90
2023-04-02T23:14:10.899Z,7.90
2023-04-02T23:16:37.843Z,7.90
2023-04-02T23:19:06.953Z,7.80
2023-04-02T23:21:38.178Z,7.90
2023-04-02T23:24:05.469Z,7.80
2023-04-02T23:26:32.877Z,7.90
2023-04-02T23:29:05.625Z,7.90
2023-04-02T23:31:34.758Z,7.90
2023-04-02T23:34:04.773Z,7.80
2023-04-02T23:36:35.530Z,7.90
2023-04-02T23:39:11.192Z,7.80
2023-04-02T23:41:46.652Z,7.90
2023-04-02T23:44:13.639Z,7.90
2023-04-02T23:46:47.461Z,7.80
2023-04-02T23:49:14.344Z,7.80
2023-04-02T23:51:45.755Z,7.90
2023-04-02T23:54:14.215Z,7.90
2023-04-02T23:56:41.867Z,7.90
2023-04-02T23:59:09.015Z,7.90
